createdAt,value
2017-11-17T00:01:44.355Z,39.97
2017-11-17T00:04:11.823Z,36.67
2017-11-17T00:06:39.267Z,34.07
2017-11-17T00:09:06.750Z,41.00
2017-11-17T00:11:34.222Z,38.40
2017-11-17T00:14:01.675Z,46.03
2017-11-17T00:16:29.214Z,42.33
2017-11-17T00:18:56.667Z,39.93
2017-11-17T00:21:24.118Z,40.87
2017-11-17T00:23:51.695Z,42.53
2017-11-17T00:26:19.239Z,46.43
2017-11-17T00:28:46.697Z,42.47
2017-11-17T00:31:14.872Z,42.90
2017-11-17T00:33:42.376Z,40.87
2017-11-17T00:36:09.827Z,38.97
2017-11-17T00:38:37.286Z,40.63
2017-11-17T00:41:04.730Z,36.67
2017-11-17T00:43:32.960Z,38.37
2017-11-17T00:46:00.398Z,41.20
2017-11-17T00:48:27.873Z,44.00
2017-11-17T00:50:55.541Z,37.33
2017-11-17T00:53:23.015Z,36.80
2017-11-17T00:55:50.454Z,34.00
2017-11-17T00:58:18.014Z,37.97
2017-11-17T01:00:45.467Z,38.47
2017-11-17T01:03:13.019Z,37.93
2017-11-17T01:05:40.474Z,39.83
2017-11-17T01:08:07.930Z,43.27
2017-11-17T01:10:35.481Z,42.43
2017-11-17T01:13:03.033Z,42.43
2017-11-17T01:15:30.486Z,37.27
2017-11-17T01:17:57.959Z,33.80
2017-11-17T01:20:25.414Z,35.33
2017-11-17T01:22:52.935Z,40.13
2017-11-17T01:25:20.383Z,36.30
2017-11-17T01:27:47.883Z,35.13
2017-11-17T01:30:15.351Z,41.17
2017-11-17T01:32:42.798Z,44.20
2017-11-17T01:35:10.354Z,37.47
2017-11-17T01:37:37.849Z,38.20
2017-11-17T01:40:05.297Z,40.53
2017-11-17T01:42:33.634Z,35.80
2017-11-17T01:45:01.151Z,42.90
2017-11-17T01:47:28.622Z,36.37
2017-11-17T01:49:56.068Z,40.10
2017-11-17T01:52:23.518Z,34.93
2017-11-17T01:54:50.974Z,39.10
2017-11-17T01:57:18.438Z,35.03
2017-11-17T01:59:45.917Z,34.40
2017-11-17T02:02:20.190Z,35.10
2017-11-17T02:04:47.650Z,34.50
2017-11-17T02:07:15.106Z,39.80
2017-11-17T02:09:42.610Z,39.87
2017-11-17T02:12:10.067Z,36.60
2017-11-17T02:14:37.587Z,35.40
2017-11-17T02:17:05.087Z,34.10
2017-11-17T02:19:32.553Z,40.43
2017-11-17T02:22:00.008Z,35.80
2017-11-17T02:24:27.567Z,40.10
2017-11-17T02:26:55.021Z,37.23
2017-11-17T02:29:22.578Z,38.20
2017-11-17T02:31:50.043Z,27.73
2017-11-17T02:34:18.268Z,24.33
2017-11-17T02:36:45.727Z,20.07
2017-11-17T02:39:13.238Z,22.70
2017-11-17T02:41:40.708Z,23.27
2017-11-17T02:44:08.217Z,20.80
2017-11-17T02:46:35.670Z,23.17
2017-11-17T02:49:03.229Z,20.83
2017-11-17T02:51:30.696Z,25.10
2017-11-17T02:53:58.151Z,19.67
2017-11-17T02:56:25.607Z,17.63
2017-11-17T02:58:53.055Z,24.53
2017-11-17T03:01:20.523Z,29.67
2017-11-17T03:03:48.076Z,34.90
2017-11-17T03:06:15.519Z,37.33
2017-11-17T03:08:42.983Z,33.57
2017-11-17T03:11:10.530Z,30.70
2017-11-17T03:13:38.007Z,37.80
2017-11-17T03:16:05.549Z,33.50
2017-11-17T03:18:33.075Z,32.50
2017-11-17T03:21:00.587Z,35.97
2017-11-17T03:23:28.194Z,38.63
2017-11-17T03:25:55.757Z,37.40
2017-11-17T03:28:23.230Z,37.80
2017-11-17T03:30:50.683Z,40.00
2017-11-17T03:33:18.142Z,36.77
2017-11-17T03:35:45.593Z,37.73
2017-11-17T03:38:13.062Z,39.67
2017-11-17T03:40:40.522Z,38.53
2017-11-17T03:43:08.075Z,41.57
2017-11-17T03:45:35.530Z,39.67
2017-11-17T03:48:03.009Z,40.80
2017-11-17T03:50:31.214Z,38.63
2017-11-17T03:52:58.674Z,39.03
2017-11-17T03:55:26.177Z,41.13
2017-11-17T03:57:53.730Z,37.70
2017-11-17T04:00:21.273Z,35.67
2017-11-17T04:02:48.741Z,38.70
2017-11-17T04:05:16.200Z,38.93
2017-11-17T04:07:43.675Z,40.00
2017-11-17T04:10:11.204Z,36.87
2017-11-17T04:12:38.661Z,47.80
2017-11-17T04:15:06.105Z,42.30
2017-11-17T04:17:33.566Z,44.57
2017-11-17T04:20:01.014Z,42.07
2017-11-17T04:22:28.471Z,39.37
2017-11-17T04:24:55.930Z,40.90
2017-11-17T04:27:23.378Z,36.03
2017-11-17T04:29:50.869Z,43.23
2017-11-17T04:32:19.126Z,43.23
2017-11-17T04:34:46.689Z,42.30
2017-11-17T04:37:14.134Z,39.20
2017-11-17T04:39:41.600Z,37.77
2017-11-17T04:42:09.059Z,34.23
2017-11-17T04:44:36.617Z,43.17
2017-11-17T04:47:04.094Z,38.27
2017-11-17T04:49:32.331Z,40.67
2017-11-17T04:51:59.786Z,39.63
2017-11-17T04:54:27.245Z,43.30
2017-11-17T04:56:54.717Z,39.83
2017-11-17T04:59:22.282Z,41.67
2017-11-17T05:01:51.246Z,40.27
2017-11-17T05:04:18.814Z,42.70
2017-11-17T05:06:46.267Z,41.40
2017-11-17T05:09:13.823Z,41.77
2017-11-17T05:11:41.294Z,33.80
2017-11-17T05:14:09.555Z,37.17
2017-11-17T05:16:37.043Z,39.83
2017-11-17T05:19:05.292Z,47.33
2017-11-17T05:21:32.854Z,40.60
2017-11-17T05:24:00.326Z,42.90
2017-11-17T05:26:28.678Z,43.17
2017-11-17T05:28:56.195Z,36.10
2017-11-17T05:31:23.650Z,45.60
2017-11-17T05:33:51.107Z,44.97
2017-11-17T05:36:18.818Z,42.63
2017-11-17T05:38:46.932Z,40.27
2017-11-17T05:41:14.440Z,40.20
2017-11-17T05:43:41.902Z,51.47
2017-11-17T05:46:09.458Z,45.67
2017-11-17T05:48:36.945Z,44.93
2017-11-17T05:51:04.451Z,41.47
2017-11-17T05:53:31.907Z,39.77
2017-11-17T05:55:59.359Z,46.47
2017-11-17T05:58:26.847Z,45.63
2017-11-17T06:00:55.093Z,44.33
2017-11-17T06:03:22.557Z,49.80
2017-11-17T06:05:50.077Z,47.57
2017-11-17T06:08:17.565Z,43.57
2017-11-17T06:10:45.022Z,46.17
2017-11-17T06:13:12.570Z,51.23
2017-11-17T06:15:40.205Z,44.37
2017-11-17T06:18:07.663Z,49.60
2017-11-17T06:20:35.137Z,43.90
2017-11-17T06:23:02.716Z,52.00
2017-11-17T06:25:30.157Z,53.60
2017-11-17T06:27:57.790Z,42.10
2017-11-17T06:30:25.235Z,48.23
2017-11-17T06:32:52.730Z,47.90
2017-11-17T06:35:20.263Z,48.33
2017-11-17T06:37:47.750Z,38.23
2017-11-17T06:40:15.215Z,45.00
2017-11-17T06:42:42.766Z,44.50
2017-11-17T06:45:10.221Z,43.03
2017-11-17T06:47:37.689Z,45.13
2017-11-17T06:50:05.176Z,52.37
2017-11-17T06:52:32.623Z,48.47
2017-11-17T06:55:00.837Z,49.60
2017-11-17T06:57:28.295Z,44.20
2017-11-17T06:59:56.587Z,51.80
2017-11-17T07:02:24.046Z,44.87
2017-11-17T07:04:51.502Z,43.50
2017-11-17T07:07:19.587Z,46.57
2017-11-17T07:09:47.049Z,46.80
2017-11-17T07:12:15.262Z,48.20
2017-11-17T07:14:42.722Z,46.37
2017-11-17T07:17:10.167Z,43.73
2017-11-17T07:19:37.630Z,41.23
2017-11-17T07:22:05.114Z,52.53
2017-11-17T07:24:32.684Z,49.63
2017-11-17T07:27:00.250Z,46.50
2017-11-17T07:29:27.742Z,44.20
2017-11-17T07:31:55.202Z,45.80
2017-11-17T07:34:22.675Z,46.77
2017-11-17T07:36:50.134Z,47.37
2017-11-17T07:39:17.624Z,41.47
2017-11-17T07:41:45.174Z,51.00
2017-11-17T07:44:12.625Z,47.00
2017-11-17T07:46:40.075Z,45.77
2017-11-17T07:49:07.537Z,48.03
2017-11-17T07:51:35.164Z,48.73
2017-11-17T07:54:02.627Z,45.47
2017-11-17T07:56:30.082Z,50.20
2017-11-17T07:58:57.622Z,47.87
2017-11-17T08:01:26.094Z,46.87
2017-11-17T08:03:53.603Z,47.23
2017-11-17T08:06:21.046Z,45.40
2017-11-17T08:08:48.493Z,46.60
2017-11-17T08:11:17.060Z,50.00
2017-11-17T08:13:44.578Z,45.30
2017-11-17T08:16:12.110Z,48.20
2017-11-17T08:18:47.078Z,41.43
2017-11-17T08:21:16.300Z,45.73
2017-11-17T08:23:43.742Z,47.73
2017-11-17T08:26:11.193Z,46.23
2017-11-17T08:28:38.708Z,45.13
2017-11-17T08:31:06.188Z,48.67
2017-11-17T08:33:34.412Z,46.73
2017-11-17T08:36:01.874Z,42.17
2017-11-17T08:38:29.341Z,44.00
2017-11-17T08:40:56.794Z,42.97
2017-11-17T08:43:24.349Z,44.50
2017-11-17T08:45:52.824Z,39.90
2017-11-17T08:48:20.296Z,43.90
2017-11-17T08:50:47.851Z,40.93
2017-11-17T08:53:15.382Z,39.50
2017-11-17T08:55:42.866Z,39.73
2017-11-17T08:58:10.322Z,45.17
2017-11-17T09:00:37.882Z,49.60
2017-11-17T09:03:05.342Z,47.57
2017-11-17T09:05:32.900Z,43.17
2017-11-17T09:08:00.363Z,37.13
2017-11-17T09:10:27.846Z,45.00
2017-11-17T09:12:55.888Z,49.00
2017-11-17T09:15:23.821Z,43.17
2017-11-17T09:17:51.288Z,48.57
2017-11-17T09:22:53.474Z,49.60
2017-11-17T09:25:21.001Z,43.90
2017-11-17T09:27:48.486Z,49.43
2017-11-17T09:30:16.042Z,45.27
2017-11-17T09:32:43.542Z,37.93
2017-11-17T09:35:11.774Z,42.00
2017-11-17T09:37:39.227Z,44.50
2017-11-17T09:40:06.674Z,46.17
2017-11-17T09:42:34.132Z,41.60
2017-11-17T09:45:01.591Z,47.03
2017-11-17T09:47:29.048Z,45.20
2017-11-17T09:49:56.506Z,43.17
2017-11-17T09:52:23.947Z,41.13
2017-11-17T09:54:51.487Z,36.47
2017-11-17T09:57:18.942Z,40.30
2017-11-17T09:59:46.442Z,39.97
2017-11-17T10:02:14.497Z,48.30
2017-11-17T10:04:41.958Z,40.60
2017-11-17T10:07:09.527Z,44.23
2017-11-17T10:09:36.985Z,42.70
2017-11-17T10:12:04.430Z,41.90
2017-11-17T10:14:31.927Z,49.37
2017-11-17T10:16:59.438Z,34.47
2017-11-17T10:19:26.911Z,43.07
2017-11-17T10:21:54.349Z,38.93
2017-11-17T10:24:21.809Z,38.13
2017-11-17T10:26:49.372Z,37.90
2017-11-17T10:29:16.888Z,42.17
2017-11-17T10:31:44.331Z,41.30
2017-11-17T10:34:11.827Z,38.37
2017-11-17T10:36:39.294Z,44.00
2017-11-17T10:39:06.850Z,39.33
2017-11-17T10:41:35.271Z,42.57
2017-11-17T10:44:02.726Z,37.03
2017-11-17T10:46:30.190Z,35.60
2017-11-17T10:48:57.732Z,34.43
2017-11-17T10:51:25.990Z,36.20
2017-11-17T10:53:53.445Z,38.40
2017-11-17T10:56:32.374Z,34.73
2017-11-17T10:59:04.459Z,40.33
2017-11-17T11:01:31.943Z,36.90
2017-11-17T11:03:59.390Z,32.57
2017-11-17T11:06:26.846Z,33.47
2017-11-17T11:08:54.307Z,40.87
2017-11-17T11:11:27.414Z,36.53
2017-11-17T11:13:54.854Z,39.40
2017-11-17T11:16:22.328Z,37.80
2017-11-17T11:18:49.771Z,36.53
2017-11-17T11:21:17.249Z,41.60
2017-11-17T11:23:44.789Z,43.57
2017-11-17T11:26:12.246Z,37.87
2017-11-17T11:28:39.689Z,41.93
2017-11-17T11:31:07.147Z,39.67
2017-11-17T11:33:34.627Z,41.90
2017-11-17T11:36:02.246Z,38.27
2017-11-17T11:38:29.702Z,37.90
2017-11-17T11:40:57.265Z,39.90
2017-11-17T11:43:24.785Z,35.57
2017-11-17T11:45:53.035Z,38.23
2017-11-17T11:48:20.598Z,39.70
2017-11-17T11:50:48.045Z,43.00
2017-11-17T11:53:15.581Z,40.30
2017-11-17T11:55:43.017Z,42.10
2017-11-17T11:58:10.506Z,39.40
2017-11-17T12:00:38.069Z,41.70
2017-11-17T12:03:05.615Z,38.17
2017-11-17T12:05:33.214Z,38.33
2017-11-17T12:08:01.735Z,40.00
2017-11-17T12:10:29.181Z,41.10
2017-11-17T12:12:56.671Z,41.33
2017-11-17T12:15:24.124Z,35.43
2017-11-17T12:17:52.006Z,34.43
2017-11-17T12:20:20.275Z,40.93
2017-11-17T12:22:47.741Z,39.30
2017-11-17T12:25:15.278Z,33.23
2017-11-17T12:27:42.725Z,37.70
2017-11-17T12:30:10.166Z,35.90
2017-11-17T12:32:37.623Z,38.77
2017-11-17T12:35:05.093Z,34.17
2017-11-17T12:37:32.649Z,35.23
2017-11-17T12:40:00.109Z,37.23
2017-11-17T12:42:27.587Z,36.57
2017-11-17T12:44:55.053Z,37.43
2017-11-17T12:47:22.501Z,34.50
2017-11-17T12:49:49.949Z,38.23
2017-11-17T12:52:17.407Z,42.23
2017-11-17T12:54:44.899Z,41.13
2017-11-17T12:57:13.176Z,37.07
2017-11-17T12:59:40.655Z,40.83
2017-11-17T13:02:08.134Z,39.80
2017-11-17T13:04:35.686Z,36.80
2017-11-17T13:07:03.339Z,39.40
2017-11-17T13:09:30.790Z,37.60
2017-11-17T13:11:58.262Z,38.43
2017-11-17T13:14:25.738Z,41.77
2017-11-17T13:16:53.186Z,39.40
2017-11-17T13:19:20.635Z,43.13
2017-11-17T13:21:48.082Z,42.63
2017-11-17T13:24:15.659Z,43.90
2017-11-17T13:26:43.158Z,43.03
2017-11-17T13:29:10.630Z,38.63
2017-11-17T13:31:38.107Z,39.10
2017-11-17T13:34:05.584Z,43.77
2017-11-17T13:36:33.122Z,42.90
2017-11-17T13:39:00.681Z,36.73
2017-11-17T13:41:28.251Z,38.17
2017-11-17T13:43:55.803Z,42.37
2017-11-17T13:46:23.266Z,39.27
2017-11-17T13:48:50.706Z,39.70
2017-11-17T13:51:18.265Z,44.33
2017-11-17T13:53:45.834Z,40.77
2017-11-17T13:56:13.389Z,37.73
2017-11-17T13:58:40.846Z,38.00
2017-11-17T14:01:08.335Z,45.50
2017-11-17T14:03:36.538Z,44.50
2017-11-17T14:06:03.990Z,41.10
2017-11-17T14:08:31.441Z,45.43
2017-11-17T14:10:58.906Z,40.23
2017-11-17T14:13:26.351Z,37.77
2017-11-17T14:15:53.814Z,35.90
2017-11-17T14:18:21.266Z,35.80
2017-11-17T14:20:48.726Z,41.43
2017-11-17T14:23:16.199Z,42.10
2017-11-17T14:25:43.655Z,42.37
2017-11-17T14:28:11.099Z,40.40
2017-11-17T14:30:38.554Z,38.00
2017-11-17T14:33:06.010Z,41.90
2017-11-17T14:35:33.486Z,47.27
2017-11-17T14:38:00.942Z,36.47
2017-11-17T14:40:28.386Z,39.40
2017-11-17T14:42:55.846Z,39.77
2017-11-17T14:45:23.302Z,39.80
2017-11-17T14:47:50.757Z,39.03
2017-11-17T14:50:18.319Z,40.57
2017-11-17T14:52:45.778Z,48.33
2017-11-17T14:55:13.237Z,41.23
2017-11-17T14:57:40.693Z,41.20
2017-11-17T15:00:08.196Z,47.53
2017-11-17T15:02:36.422Z,38.33
2017-11-17T15:05:03.991Z,34.80
2017-11-17T15:07:31.451Z,41.87
2017-11-17T15:09:58.994Z,38.47
2017-11-17T15:12:26.466Z,41.20
2017-11-17T15:14:53.922Z,40.77
2017-11-17T15:17:21.370Z,42.00
2017-11-17T15:19:48.813Z,38.10
2017-11-17T15:22:16.284Z,47.93
2017-11-17T15:24:43.749Z,43.10
2017-11-17T15:27:11.202Z,39.17
2017-11-17T15:29:38.652Z,39.80
2017-11-17T15:32:06.200Z,38.40
2017-11-17T15:34:33.650Z,41.40
2017-11-17T15:37:01.214Z,43.00
2017-11-17T15:39:28.801Z,39.47
2017-11-17T15:41:57.014Z,37.83
2017-11-17T15:44:24.502Z,45.70
2017-11-17T15:46:51.979Z,42.10
2017-11-17T15:49:20.194Z,40.37
2017-11-17T15:51:47.650Z,41.63
2017-11-17T15:54:15.169Z,42.07
2017-11-17T15:56:43.403Z,39.50
2017-11-17T15:59:10.971Z,43.77
2017-11-17T16:01:38.463Z,42.20
2017-11-17T16:04:06.693Z,40.87
2017-11-17T16:06:34.392Z,45.83
2017-11-17T16:09:02.606Z,37.83
2017-11-17T16:11:30.067Z,38.73
2017-11-17T16:13:57.534Z,47.07
2017-11-17T16:16:24.982Z,48.13
2017-11-17T16:18:52.437Z,40.90
2017-11-17T16:21:19.911Z,40.27
2017-11-17T16:23:47.353Z,46.07
2017-11-17T16:26:14.890Z,40.40
2017-11-17T16:28:42.372Z,46.20
2017-11-17T16:31:09.841Z,42.20
2017-11-17T16:33:37.359Z,39.30
2017-11-17T16:36:04.815Z,39.20
2017-11-17T16:38:32.270Z,40.00
2017-11-17T16:40:59.734Z,40.00
2017-11-17T16:43:27.187Z,41.97
2017-11-17T16:45:54.678Z,42.40
2017-11-17T16:48:22.135Z,42.60
2017-11-17T16:50:49.946Z,41.73
2017-11-17T16:53:17.490Z,43.13
2017-11-17T16:55:44.998Z,40.20
2017-11-17T16:58:12.572Z,37.50
2017-11-17T17:00:40.084Z,39.83
2017-11-17T17:03:07.516Z,45.47
2017-11-17T17:05:35.773Z,37.13
2017-11-17T17:08:03.229Z,40.87
2017-11-17T17:10:30.710Z,42.03
2017-11-17T17:12:58.936Z,44.20
2017-11-17T17:15:26.393Z,46.20
2017-11-17T17:17:53.964Z,48.80
2017-11-17T17:20:21.411Z,46.47
2017-11-17T17:22:48.927Z,42.50
2017-11-17T17:25:16.414Z,46.40
2017-11-17T17:27:43.890Z,40.90
2017-11-17T17:30:11.455Z,43.60
2017-11-17T17:32:38.913Z,40.63
2017-11-17T17:35:06.470Z,43.87
2017-11-17T17:37:34.697Z,41.47
2017-11-17T17:40:02.139Z,42.57
2017-11-17T17:42:29.593Z,44.17
2017-11-17T17:44:57.047Z,47.03
2017-11-17T17:47:24.522Z,45.50
2017-11-17T17:49:52.742Z,41.43
2017-11-17T17:52:20.982Z,43.97
2017-11-17T17:54:48.433Z,46.20
2017-11-17T17:57:15.890Z,46.83
2017-11-17T17:59:43.351Z,47.00
2017-11-17T18:02:10.798Z,51.23
2017-11-17T18:04:38.238Z,47.13
2017-11-17T18:07:05.682Z,47.43
2017-11-17T18:09:33.146Z,49.17
2017-11-17T18:12:00.804Z,44.13
2017-11-17T18:14:28.289Z,41.27
2017-11-17T18:16:55.756Z,49.67
2017-11-17T18:19:23.217Z,48.13
2017-11-17T18:21:50.676Z,49.57
2017-11-17T18:24:18.135Z,47.70
2017-11-17T18:26:45.591Z,50.53
2017-11-17T18:29:13.064Z,50.37
2017-11-17T18:31:40.482Z,43.73
2017-11-17T18:34:07.938Z,50.17
2017-11-17T18:36:35.836Z,51.20
2017-11-17T18:39:03.281Z,47.20
2017-11-17T18:41:30.817Z,44.70
2017-11-17T18:43:58.376Z,48.63
2017-11-17T18:46:25.817Z,47.50
2017-11-17T18:48:53.395Z,49.57
2017-11-17T18:51:20.847Z,47.07
2017-11-17T18:53:48.393Z,47.90
2017-11-17T18:56:15.831Z,41.80
2017-11-17T18:58:43.362Z,41.23
2017-11-17T19:01:10.870Z,43.30
2017-11-17T19:03:38.379Z,47.97
2017-11-17T19:06:06.560Z,44.33
2017-11-17T19:08:34.037Z,45.93
2017-11-17T19:11:01.530Z,50.13
2017-11-17T19:13:28.966Z,48.33
2017-11-17T19:15:58.010Z,44.40
2017-11-17T19:18:25.385Z,44.43
2017-11-17T19:20:52.842Z,45.40
2017-11-17T19:23:20.310Z,36.93
2017-11-17T19:25:47.771Z,41.33
2017-11-17T19:28:15.325Z,49.00
2017-11-17T19:30:42.783Z,42.03
2017-11-17T19:33:10.242Z,46.00
2017-11-17T19:35:38.203Z,39.23
2017-11-17T19:38:05.812Z,43.73
2017-11-17T19:40:34.052Z,43.13
2017-11-17T19:43:01.656Z,40.23
2017-11-17T19:45:29.178Z,47.53
2017-11-17T19:47:56.618Z,49.20
2017-11-17T19:50:24.074Z,44.13
2017-11-17T19:52:52.152Z,44.73
2017-11-17T19:55:20.514Z,45.57
2017-11-17T19:57:47.975Z,53.50
2017-11-17T20:00:15.436Z,50.23
2017-11-17T20:02:42.886Z,49.83
2017-11-17T20:05:10.446Z,55.57
2017-11-17T20:07:37.987Z,55.50
2017-11-17T20:10:05.608Z,50.70
2017-11-17T20:12:33.161Z,48.87
2017-11-17T20:15:01.367Z,58.47
2017-11-17T20:17:28.826Z,49.17
2017-11-17T20:19:56.319Z,50.00
2017-11-17T20:22:23.758Z,46.87
2017-11-17T20:24:51.379Z,55.60
2017-11-17T20:27:18.903Z,58.27
2017-11-17T20:29:47.114Z,55.20
2017-11-17T20:32:14.640Z,49.33
2017-11-17T20:34:42.901Z,49.50
2017-11-17T20:37:10.406Z,51.53
2017-11-17T20:39:37.942Z,51.70
2017-11-17T20:42:05.386Z,47.57
2017-11-17T20:44:32.899Z,50.27
2017-11-17T20:47:00.363Z,52.53
2017-11-17T20:49:29.513Z,52.17
2017-11-17T20:51:57.018Z,61.23
2017-11-17T20:54:24.505Z,52.07
2017-11-17T20:56:52.785Z,50.97
2017-11-17T20:59:21.047Z,48.80
2017-11-17T21:01:49.267Z,63.53
2017-11-17T21:04:17.528Z,54.97
2017-11-17T21:06:45.007Z,53.47
2017-11-17T21:09:12.495Z,46.50
2017-11-17T21:11:39.982Z,50.50
2017-11-17T21:14:07.429Z,51.00
2017-11-17T21:16:34.925Z,48.20
2017-11-17T21:19:02.391Z,44.87
2017-11-17T21:21:29.954Z,49.90
2017-11-17T21:23:57.433Z,49.97
2017-11-17T21:26:25.111Z,47.00
2017-11-17T21:28:53.355Z,46.17
2017-11-17T21:31:20.814Z,49.13
2017-11-17T21:33:48.250Z,43.10
2017-11-17T21:36:15.720Z,46.40
2017-11-17T21:38:43.182Z,48.27
2017-11-17T21:41:10.736Z,54.20
2017-11-17T21:43:38.202Z,49.83
2017-11-17T21:46:06.551Z,51.77
2017-11-17T21:48:34.120Z,53.00
2017-11-17T21:51:01.586Z,55.00
2017-11-17T21:53:29.043Z,55.97
2017-11-17T21:55:56.498Z,56.70
2017-11-17T21:58:24.713Z,56.43
2017-11-17T22:00:52.162Z,48.07
2017-11-17T22:03:19.618Z,56.73
2017-11-17T22:05:47.063Z,49.77
2017-11-17T22:08:14.505Z,55.83
2017-11-17T22:10:42.758Z,51.83
2017-11-17T22:13:10.229Z,53.07
2017-11-17T22:15:38.549Z,54.00
2017-11-17T22:18:06.012Z,57.00
2017-11-17T22:20:33.495Z,54.27
2017-11-17T22:23:00.952Z,58.17
2017-11-17T22:25:28.520Z,42.67
2017-11-17T22:27:56.079Z,47.80
2017-11-17T22:30:24.306Z,52.60
2017-11-17T22:32:51.781Z,50.20
2017-11-17T22:35:19.381Z,43.53
2017-11-17T22:37:46.826Z,48.53
2017-11-17T22:40:14.266Z,45.13
2017-11-17T22:42:41.718Z,47.23
2017-11-17T22:45:09.307Z,51.83
2017-11-17T22:47:37.523Z,50.77
2017-11-17T22:50:04.998Z,49.03
2017-11-17T22:52:32.450Z,46.37
2017-11-17T22:54:59.905Z,45.13
2017-11-17T22:57:27.374Z,47.63
2017-11-17T22:59:54.850Z,49.20
2017-11-17T23:02:22.297Z,50.53
2017-11-17T23:04:49.738Z,49.67
2017-11-17T23:07:17.186Z,44.40
2017-11-17T23:09:44.646Z,50.63
2017-11-17T23:12:12.102Z,50.60
2017-11-17T23:14:39.642Z,44.20
2017-11-17T23:17:07.108Z,45.60
2017-11-17T23:19:34.562Z,41.30
2017-11-17T23:22:02.010Z,48.30
2017-11-17T23:24:29.513Z,41.30
2017-11-17T23:26:57.767Z,53.90
2017-11-17T23:29:25.317Z,44.73
2017-11-17T23:31:52.812Z,50.17
2017-11-17T23:34:21.435Z,42.27
2017-11-17T23:36:48.906Z,44.13
2017-11-17T23:39:16.354Z,39.67
2017-11-17T23:41:43.942Z,47.60
2017-11-17T23:44:12.311Z,47.33
2017-11-17T23:46:39.851Z,43.00
2017-11-17T23:49:07.322Z,49.13
2017-11-17T23:51:34.882Z,44.03
2017-11-17T23:54:02.345Z,43.33
2017-11-17T23:56:29.797Z,40.57
2017-11-17T23:58:57.351Z,42.70
